createdAt,value
2018-12-02T00:00:50.428Z,9.98
2018-12-02T00:03:19.141Z,9.83
2018-12-02T00:05:47.759Z,9.82
2018-12-02T00:08:16.468Z,9.88
2018-12-02T00:10:45.125Z,9.82
2018-12-02T00:13:13.881Z,10.11
2018-12-02T00:15:48.296Z,10.03
2018-12-02T00:18:17.029Z,9.87
2018-12-02T00:20:45.652Z,9.97
2018-12-02T00:23:14.298Z,9.99
2018-12-02T00:25:42.904Z,9.82
2018-12-02T00:28:12.054Z,10.09
2018-12-02T00:30:41.153Z,9.98
2018-12-02T00:33:09.809Z,9.70
2018-12-02T00:35:38.426Z,9.67
2018-12-02T00:38:08.347Z,9.81
2018-12-02T00:40:37.058Z,9.75
2018-12-02T00:43:07.572Z,9.81
2018-12-02T00:45:37.248Z,9.80
2018-12-02T00:48:08.440Z,9.75
2018-12-02T00:50:37.110Z,9.76
2018-12-02T00:53:07.125Z,9.76
2018-12-02T00:55:37.367Z,9.89
2018-12-02T00:58:06.124Z,9.95
2018-12-02T01:00:34.796Z,10.04
2018-12-02T01:03:03.516Z,10.07
2018-12-02T01:05:32.135Z,10.01
2018-12-02T01:08:00.749Z,10.02
2018-12-02T01:10:29.312Z,9.90
2018-12-02T01:12:58.816Z,9.87
2018-12-02T01:15:32.071Z,9.86
2018-12-02T01:18:00.690Z,9.97
2018-12-02T01:20:29.365Z,9.90
2018-12-02T01:22:58.020Z,10.02
2018-12-02T01:25:26.689Z,10.03
2018-12-02T01:27:55.290Z,9.94
2018-12-02T01:30:25.104Z,9.94
2018-12-02T01:32:54.673Z,9.97
2018-12-02T01:35:23.330Z,9.92
2018-12-02T01:37:52.025Z,9.86
2018-12-02T01:40:23.779Z,9.85
2018-12-02T01:42:53.403Z,9.83
2018-12-02T01:45:25.165Z,9.79
2018-12-02T01:47:55.844Z,9.76
2018-12-02T01:50:25.577Z,9.84
2018-12-02T01:52:56.194Z,9.79
2018-12-02T01:55:24.835Z,9.75
2018-12-02T01:57:53.520Z,9.73
2018-12-02T02:00:24.905Z,9.74
2018-12-02T02:02:53.797Z,9.88
2018-12-02T02:05:23.110Z,9.86
2018-12-02T02:07:51.735Z,9.80
2018-12-02T02:10:30.443Z,9.89
2018-12-02T02:12:58.960Z,9.85
2018-12-02T02:15:27.568Z,9.98
2018-12-02T02:17:56.136Z,9.84
2018-12-02T02:20:25.545Z,9.76
2018-12-02T02:22:54.077Z,9.84
2018-12-02T02:25:23.614Z,9.76
2018-12-02T02:27:56.536Z,9.93
2018-12-02T02:30:26.141Z,9.89
2018-12-02T02:32:54.724Z,9.83
2018-12-02T02:35:23.543Z,9.79
2018-12-02T02:37:54.800Z,9.89
2018-12-02T02:40:27.596Z,9.76
2018-12-02T02:45:31.396Z,9.50
2018-12-02T02:47:59.917Z,9.38
2018-12-02T02:50:28.340Z,9.38
2018-12-02T02:52:58.760Z,9.30
2018-12-02T02:55:27.261Z,9.34
2018-12-02T02:57:55.842Z,9.41
2018-12-02T03:00:27.226Z,9.38
2018-12-02T03:02:55.660Z,9.32
2018-12-02T03:05:24.098Z,9.26
2018-12-02T03:07:52.515Z,9.33
2018-12-02T03:10:21.703Z,9.30
2018-12-02T03:12:51.256Z,9.18
2018-12-02T03:15:20.304Z,9.17
2018-12-02T03:17:48.749Z,9.29
2018-12-02T03:20:18.078Z,9.27
2018-12-02T03:22:49.370Z,9.17
2018-12-02T03:25:18.989Z,9.24
2018-12-02T03:27:47.459Z,9.13
2018-12-02T03:30:18.607Z,9.13
2018-12-02T03:32:47.190Z,8.98
2018-12-02T03:35:17.496Z,8.95
2018-12-02T03:37:45.967Z,8.96
2018-12-02T03:40:32.744Z,8.93
2018-12-02T03:43:01.183Z,8.95
2018-12-02T03:45:29.620Z,8.98
2018-12-02T03:47:58.515Z,8.97
2018-12-02T03:50:27.006Z,8.98
2018-12-02T03:52:55.463Z,8.98
2018-12-02T03:55:23.965Z,9.04
2018-12-02T03:57:52.463Z,9.01
2018-12-02T04:00:22.661Z,9.06
2018-12-02T04:02:51.655Z,9.11
2018-12-02T04:05:20.919Z,9.21
2018-12-02T04:07:49.703Z,9.23
2018-12-02T04:10:18.752Z,9.27
2018-12-02T04:12:48.075Z,9.33
2018-12-02T04:15:18.464Z,9.32
2018-12-02T04:17:47.226Z,9.33
2018-12-02T04:20:16.628Z,9.38
2018-12-02T04:22:45.850Z,9.37
2018-12-02T04:25:18.448Z,9.30
2018-12-02T04:27:46.988Z,9.41
2018-12-02T04:30:16.474Z,9.50
2018-12-02T04:32:45.386Z,9.45
2018-12-02T04:35:15.803Z,9.63
2018-12-02T04:37:44.276Z,9.59
2018-12-02T04:40:13.549Z,9.67
2018-12-02T04:42:41.978Z,9.64
2018-12-02T04:45:15.124Z,9.73
2018-12-02T04:47:43.628Z,9.70
2018-12-02T04:50:14.181Z,9.71
2018-12-02T04:52:42.617Z,9.76
2018-12-02T04:55:11.288Z,9.62
2018-12-02T04:57:39.793Z,9.66
2018-12-02T05:00:10.748Z,9.67
2018-12-02T05:02:39.170Z,9.68
2018-12-02T05:05:10.253Z,9.72
2018-12-02T05:07:38.955Z,9.66
2018-12-02T05:10:13.499Z,9.78
2018-12-02T05:12:42.056Z,9.73
2018-12-02T05:15:11.630Z,9.83
2018-12-02T05:17:40.147Z,9.87
2018-12-02T05:20:11.659Z,9.87
2018-12-02T05:22:40.152Z,9.87
2018-12-02T05:25:09.912Z,9.88
2018-12-02T05:27:38.383Z,9.90
2018-12-02T05:30:12.020Z,9.89
2018-12-02T05:32:40.823Z,9.96
2018-12-02T05:35:10.195Z,9.92
2018-12-02T05:37:38.628Z,9.99
2018-12-02T05:40:10.778Z,10.02
2018-12-02T05:42:39.299Z,10.01
2018-12-02T05:45:09.517Z,10.05
2018-12-02T05:47:37.973Z,10.08
2018-12-02T05:50:12.979Z,10.11
2018-12-02T05:52:41.443Z,10.08
2018-12-02T05:55:11.389Z,10.13
2018-12-02T05:57:39.861Z,10.11
2018-12-02T06:00:17.045Z,10.15
2018-12-02T06:02:45.468Z,10.18
2018-12-02T06:05:13.960Z,10.28
2018-12-02T06:07:42.394Z,10.28
2018-12-02T06:10:13.879Z,10.31
2018-12-02T06:12:42.319Z,10.36
2018-12-02T06:15:13.686Z,10.37
2018-12-02T06:17:42.127Z,10.42
2018-12-02T06:20:27.595Z,10.42
2018-12-02T06:22:56.875Z,10.45
2018-12-02T06:25:25.378Z,10.43
2018-12-02T06:27:53.878Z,10.44
2018-12-02T06:30:29.885Z,10.40
2018-12-02T06:33:01.314Z,10.41
2018-12-02T06:35:29.757Z,10.39
2018-12-02T06:37:59.324Z,10.45
2018-12-02T06:40:28.622Z,10.52
2018-12-02T06:42:57.075Z,10.57
2018-12-02T06:45:25.520Z,10.62
2018-12-02T06:47:53.932Z,10.58
2018-12-02T06:50:24.200Z,10.61
2018-12-02T06:52:52.964Z,10.55
2018-12-02T06:55:59.612Z,10.57
2018-12-02T06:58:35.723Z,10.47
2018-12-02T07:02:16.066Z,10.48
2018-12-02T07:04:45.183Z,10.47
2018-12-02T07:07:13.662Z,10.45
2018-12-02T07:09:42.056Z,10.50
2018-12-02T07:12:10.503Z,10.51
2018-12-02T07:14:38.909Z,10.50
2018-12-02T07:17:07.334Z,10.51
2018-12-02T07:19:38.710Z,10.54
2018-12-02T07:22:13.490Z,10.52
2018-12-02T07:24:41.976Z,10.55
2018-12-02T07:27:10.340Z,10.57
2018-12-02T07:29:38.755Z,10.61
2018-12-02T07:32:07.264Z,10.54
2018-12-02T07:34:35.704Z,10.51
2018-12-02T07:37:08.200Z,10.44
2018-12-02T07:40:40.295Z,10.43
2018-12-02T07:43:10.392Z,10.43
2018-12-02T07:45:38.873Z,10.53
2018-12-02T07:48:07.355Z,10.56
2018-12-02T07:50:35.804Z,10.59
2018-12-02T07:53:04.261Z,10.66
2018-12-02T07:55:32.719Z,10.70
2018-12-02T07:58:01.192Z,10.71
2018-12-02T08:00:29.630Z,10.70
2018-12-02T08:02:58.022Z,10.71
2018-12-02T08:05:26.507Z,10.73
2018-12-02T08:07:54.925Z,10.77
2018-12-02T08:10:23.395Z,10.78
2018-12-02T08:12:51.846Z,10.79
2018-12-02T08:15:20.565Z,10.80
2018-12-02T08:17:48.954Z,10.85
2018-12-02T08:20:18.219Z,10.91
2018-12-02T08:22:51.387Z,10.97
2018-12-02T08:25:17.183Z,11.01
2018-12-02T08:27:45.607Z,10.99
2018-12-02T08:30:16.243Z,11.00
2018-12-02T08:32:44.671Z,11.09
2018-12-02T08:35:14.359Z,11.11
2018-12-02T08:37:43.722Z,11.12
2018-12-02T08:40:12.783Z,11.15
2018-12-02T08:42:41.320Z,11.20
2018-12-02T08:45:13.221Z,11.25
2018-12-02T08:47:42.299Z,11.32
2018-12-02T08:50:12.967Z,11.33
2018-12-02T08:52:41.428Z,11.38
2018-12-02T08:55:13.056Z,11.39
2018-12-02T08:57:41.496Z,11.37
2018-12-02T09:00:12.393Z,11.42
2018-12-02T09:02:40.816Z,11.48
2018-12-02T09:05:10.608Z,11.45
2018-12-02T09:07:39.072Z,11.49
2018-12-02T09:10:11.788Z,11.51
2018-12-02T09:12:40.427Z,11.50
2018-12-02T09:15:09.910Z,11.54
2018-12-02T09:17:38.456Z,11.57
2018-12-02T09:20:16.375Z,11.66
2018-12-02T09:22:44.804Z,11.65
2018-12-02T09:25:13.211Z,11.84
2018-12-02T09:27:41.650Z,11.96
2018-12-02T09:30:16.371Z,12.03
2018-12-02T09:32:44.788Z,12.05
2018-12-02T09:35:13.206Z,12.08
2018-12-02T09:37:41.624Z,12.16
2018-12-02T09:40:11.200Z,12.22
2018-12-02T09:42:39.910Z,12.28
2018-12-02T09:45:10.974Z,12.32
2018-12-02T09:47:39.524Z,12.34
2018-12-02T09:50:09.611Z,12.33
2018-12-02T09:52:38.172Z,12.36
2018-12-02T09:55:11.210Z,12.45
2018-12-02T09:57:39.744Z,12.50
2018-12-02T10:00:12.883Z,12.49
2018-12-02T10:02:41.343Z,12.50
2018-12-02T10:05:09.863Z,12.54
2018-12-02T10:07:38.279Z,12.60
2018-12-02T10:10:22.114Z,12.72
2018-12-02T10:12:48.930Z,12.70
2018-12-02T10:15:17.416Z,12.75
2018-12-02T10:17:45.816Z,12.86
2018-12-02T10:20:17.192Z,12.96
2018-12-02T10:22:46.481Z,12.92
2018-12-02T10:25:15.810Z,12.87
2018-12-02T10:27:44.306Z,12.91
2018-12-02T10:30:15.889Z,12.85
2018-12-02T10:32:44.295Z,12.84
2018-12-02T10:35:12.774Z,12.90
2018-12-02T10:37:41.463Z,12.95
2018-12-02T10:40:13.901Z,12.95
2018-12-02T10:42:42.479Z,13.02
2018-12-02T10:45:12.280Z,13.06
2018-12-02T10:47:40.857Z,13.16
2018-12-02T10:50:17.288Z,13.21
2018-12-02T10:52:45.719Z,13.26
2018-12-02T10:55:24.164Z,13.40
2018-12-02T10:57:52.535Z,13.45
2018-12-02T11:00:26.216Z,13.59
2018-12-02T11:02:54.572Z,13.66
2018-12-02T11:05:22.972Z,13.71
2018-12-02T11:07:52.060Z,13.81
2018-12-02T11:10:20.877Z,13.84
2018-12-02T11:12:49.555Z,13.93
2018-12-02T11:15:18.674Z,13.96
2018-12-02T11:17:47.654Z,14.01
2018-12-02T11:20:16.970Z,13.96
2018-12-02T11:22:45.620Z,13.92
2018-12-02T11:25:15.111Z,14.01
2018-12-02T11:27:43.840Z,14.17
2018-12-02T11:30:17.431Z,14.34
2018-12-02T11:32:47.965Z,14.34
2018-12-02T11:35:18.445Z,14.32
2018-12-02T11:37:47.771Z,14.32
2018-12-02T11:40:20.134Z,14.34
2018-12-02T11:42:49.673Z,14.17
2018-12-02T11:45:18.359Z,14.12
2018-12-02T11:47:48.057Z,14.20
2018-12-02T11:50:21.578Z,14.23
2018-12-02T11:52:50.464Z,14.29
2018-12-02T11:55:20.610Z,14.24
2018-12-02T11:57:49.166Z,14.18
2018-12-02T12:00:22.712Z,14.15
2018-12-02T12:02:53.818Z,14.22
2018-12-02T12:05:22.505Z,14.32
2018-12-02T12:16:53.865Z,14.68
2018-12-02T12:19:22.449Z,14.73
2018-12-02T12:21:53.674Z,14.76
2018-12-02T12:24:26.391Z,14.80
2018-12-02T12:26:55.206Z,14.83
2018-12-02T12:29:23.901Z,14.82
2018-12-02T12:31:52.449Z,14.88
2018-12-02T12:34:20.977Z,15.01
2018-12-02T12:36:49.572Z,15.11
2018-12-02T12:39:18.080Z,15.09
2018-12-02T12:41:46.669Z,15.10
2018-12-02T12:44:15.148Z,15.20
2018-12-02T12:46:44.945Z,15.35
2018-12-02T12:49:13.490Z,15.48
2018-12-02T12:51:42.089Z,15.68
2018-12-02T12:54:10.713Z,15.80
2018-12-02T12:56:39.260Z,15.82
2018-12-02T12:59:09.061Z,15.73
2018-12-02T13:01:37.826Z,15.62
2018-12-02T13:04:06.425Z,15.57
2018-12-02T13:06:34.965Z,15.61
2018-12-02T13:09:03.665Z,15.63
2018-12-02T13:11:32.181Z,15.65
2018-12-02T13:14:00.747Z,15.53
2018-12-02T13:16:29.270Z,15.51
2018-12-02T13:18:57.789Z,15.41
2018-12-02T13:21:26.269Z,15.47
2018-12-02T13:23:54.810Z,15.48
2018-12-02T13:26:23.352Z,15.47
2018-12-02T13:28:51.866Z,15.45
2018-12-02T13:31:20.522Z,15.46
2018-12-02T13:33:49.117Z,15.38
2018-12-02T13:36:17.652Z,15.43
2018-12-02T13:38:46.180Z,15.35
2018-12-02T13:41:14.736Z,15.30
2018-12-02T13:43:43.421Z,15.30
2018-12-02T13:46:13.815Z,15.22
2018-12-02T13:48:42.604Z,15.24
2018-12-02T13:51:12.991Z,15.27
2018-12-02T13:53:47.764Z,15.24
2018-12-02T13:56:16.776Z,15.19
2018-12-02T13:58:45.425Z,15.18
2018-12-02T14:01:14.213Z,15.13
2018-12-02T14:03:43.719Z,15.17
2018-12-02T14:06:12.743Z,15.14
2018-12-02T14:08:41.548Z,15.18
2018-12-02T14:11:10.412Z,15.16
2018-12-02T14:13:39.418Z,15.17
2018-12-02T14:17:13.476Z,15.17
2018-12-02T14:19:44.492Z,15.09
2018-12-02T14:22:13.544Z,15.09
2018-12-02T14:24:42.536Z,15.09
2018-12-02T14:27:12.489Z,15.01
2018-12-02T14:29:47.736Z,15.04
2018-12-02T14:32:17.522Z,15.01
2018-12-02T14:34:46.212Z,14.87
2018-12-02T14:37:14.851Z,14.77
2018-12-02T14:42:28.901Z,14.68
2018-12-02T14:45:01.323Z,14.65
2018-12-02T14:47:29.880Z,14.59
2018-12-02T14:49:59.719Z,14.38
2018-12-02T14:52:28.297Z,14.32
2018-12-02T14:54:56.898Z,14.28
2018-12-02T14:57:25.428Z,14.18
2018-12-02T14:59:54.168Z,14.12
2018-12-02T15:02:22.767Z,14.10
2018-12-02T15:04:51.340Z,14.10
2018-12-02T15:07:19.868Z,14.16
2018-12-02T15:09:48.956Z,14.23
2018-12-02T15:12:17.700Z,14.31
2018-12-02T15:14:46.340Z,14.31
2018-12-02T15:17:14.916Z,14.27
2018-12-02T15:19:43.785Z,14.25
2018-12-02T15:22:12.379Z,14.24
2018-12-02T15:30:17.312Z,14.21
2018-12-02T15:32:54.752Z,14.24
2018-12-02T15:38:25.481Z,14.26
2018-12-02T15:43:37.851Z,14.16
2018-12-02T15:48:49.341Z,14.17
2018-12-02T15:51:19.076Z,14.13
2018-12-02T16:01:56.674Z,14.00
2018-12-02T16:07:19.309Z,13.99
2018-12-02T16:09:53.873Z,14.00
2018-12-02T16:12:25.514Z,14.03
2018-12-02T16:14:59.202Z,14.14
2018-12-02T16:20:16.346Z,14.16
2018-12-02T16:25:36.793Z,14.14
2018-12-02T16:30:56.610Z,14.14
2018-12-02T16:41:50.481Z,14.34
2018-12-02T16:44:25.640Z,14.36
2018-12-02T16:46:54.120Z,14.31
2018-12-02T16:49:23.365Z,14.46
2018-12-02T16:51:52.849Z,14.40
2018-12-02T16:54:21.848Z,14.45
2018-12-02T16:56:51.348Z,14.58
2018-12-02T16:59:22.188Z,14.71
2018-12-02T17:01:56.511Z,14.69
2018-12-02T17:04:25.124Z,14.74
2018-12-02T17:06:53.750Z,14.72
2018-12-02T17:09:22.368Z,14.68
2018-12-02T17:11:51.552Z,14.66
2018-12-02T17:14:20.293Z,14.71
2018-12-02T17:16:49.308Z,14.72
2018-12-02T17:19:18.473Z,14.90
2018-12-02T17:21:47.763Z,14.92
2018-12-02T17:24:18.799Z,14.94
2018-12-02T17:26:48.552Z,14.95
2018-12-02T17:29:18.560Z,14.93
2018-12-02T17:31:53.292Z,14.89
2018-12-02T17:34:21.784Z,14.89
2018-12-02T17:36:50.375Z,14.92
2018-12-02T17:39:24.009Z,14.89
2018-12-02T17:42:01.832Z,14.88
2018-12-02T17:44:30.591Z,14.85
2018-12-02T17:46:59.327Z,14.94
2018-12-02T17:49:31.671Z,14.90
2018-12-02T17:54:48.465Z,14.75
2018-12-02T17:57:17.529Z,14.72
2018-12-02T17:59:46.154Z,14.71
2018-12-02T18:02:21.485Z,14.85
2018-12-02T18:04:50.351Z,14.89
2018-12-02T18:07:19.826Z,14.83
2018-12-02T18:12:44.375Z,14.71
2018-12-02T18:15:16.755Z,14.67
2018-12-02T19:30:33.021Z,14.27
2018-12-02T19:32:58.799Z,14.23
2018-12-02T19:35:32.637Z,14.21
2018-12-02T19:38:08.134Z,14.18
2018-12-02T19:40:36.576Z,14.17
2018-12-02T19:43:05.436Z,14.16
2018-12-02T19:45:34.344Z,14.13
2018-12-02T19:48:02.973Z,14.09
2018-12-02T19:50:32.834Z,13.98
2018-12-02T19:53:01.340Z,13.87
2018-12-02T19:55:29.920Z,13.64
2018-12-02T19:57:58.511Z,13.53
2018-12-02T20:00:32.149Z,13.53
2018-12-02T20:03:00.658Z,13.52
2018-12-02T20:05:29.218Z,13.60
2018-12-02T20:08:01.186Z,13.61
2018-12-02T20:10:31.019Z,13.56
2018-12-02T20:13:07.476Z,13.61
2018-12-02T20:15:36.429Z,13.66
2018-12-02T20:18:05.605Z,13.84
2018-12-02T20:20:40.431Z,13.96
2018-12-02T20:23:09.199Z,13.96
2018-12-02T20:25:38.321Z,14.01
2018-12-02T20:28:08.884Z,14.04
2018-12-02T20:30:38.516Z,14.02
2018-12-02T20:33:07.325Z,14.10
2018-12-02T20:35:35.968Z,14.02
2018-12-02T20:38:04.661Z,14.05
2018-12-02T20:40:33.392Z,13.96
2018-12-02T20:43:02.165Z,13.97
2018-12-02T20:45:30.807Z,14.08
2018-12-02T20:47:59.376Z,14.19
2018-12-02T20:50:28.136Z,14.21
2018-12-02T20:52:56.629Z,14.21
2018-12-02T20:55:26.576Z,14.17
2018-12-02T20:58:02.613Z,14.20
2018-12-02T21:00:31.040Z,14.23
2018-12-02T21:03:16.484Z,14.16
2018-12-02T21:05:49.825Z,14.17
2018-12-02T21:08:18.332Z,14.16
2018-12-02T21:10:46.912Z,14.21
2018-12-02T21:13:15.445Z,14.27
2018-12-02T21:15:44.458Z,14.25
2018-12-02T21:18:12.960Z,14.23
2018-12-02T21:20:41.377Z,14.24
2018-12-02T21:23:10.773Z,14.25
2018-12-02T21:25:39.496Z,14.21
2018-12-02T21:28:09.516Z,14.23
2018-12-02T21:30:38.627Z,14.16
2018-12-02T21:33:07.755Z,14.06
2018-12-02T21:35:36.789Z,13.96
2018-12-02T21:38:05.515Z,13.91
2018-12-02T21:40:34.178Z,13.78
2018-12-02T21:43:03.029Z,13.59
2018-12-02T21:45:32.041Z,13.46
2018-12-02T21:48:00.682Z,13.59
2018-12-02T21:50:31.041Z,13.55
2018-12-02T21:53:00.519Z,13.47
2018-12-02T21:55:30.391Z,13.40
2018-12-02T21:57:59.685Z,13.44
2018-12-02T22:00:33.375Z,13.42
2018-12-02T22:03:05.268Z,13.39
2018-12-02T22:05:34.393Z,13.22
2018-12-02T22:08:03.909Z,13.18
2018-12-02T22:10:33.325Z,13.11
2018-12-02T22:13:02.137Z,12.97
2018-12-02T22:15:30.563Z,12.83
2018-12-02T22:17:58.980Z,12.73
2018-12-02T22:20:27.443Z,12.70
2018-12-02T22:22:57.336Z,12.67
2018-12-02T22:25:38.271Z,12.67
2018-12-02T22:28:08.960Z,12.64
2018-12-02T22:30:38.529Z,12.88
2018-12-02T22:33:07.851Z,12.78
2018-12-02T22:35:37.648Z,12.73
2018-12-02T22:38:07.092Z,12.66
2018-12-02T22:40:35.554Z,12.60
2018-12-02T22:43:06.153Z,12.73
2018-12-02T22:45:35.045Z,12.68
2018-12-02T22:48:04.205Z,12.70
2018-12-02T22:50:33.129Z,12.78
2018-12-02T22:53:01.657Z,12.91
2018-12-02T22:55:30.044Z,12.90
2018-12-02T22:57:59.214Z,13.04
2018-12-02T23:00:37.048Z,13.03
2018-12-02T23:03:14.781Z,13.02
2018-12-02T23:07:14.489Z,12.98
2018-12-02T23:10:21.915Z,13.01
2018-12-02T23:12:51.714Z,12.84
2018-12-02T23:15:41.453Z,12.91
2018-12-02T23:18:13.926Z,13.02
2018-12-02T23:20:45.836Z,13.07
2018-12-02T23:23:15.627Z,13.06
2018-12-02T23:25:45.651Z,13.03
2018-12-02T23:28:15.504Z,13.00
2018-12-02T23:30:45.349Z,12.90
2018-12-02T23:33:15.371Z,12.79
2018-12-02T23:35:45.523Z,12.63
2018-12-02T23:38:15.416Z,12.51
2018-12-02T23:40:45.164Z,12.48
2018-12-02T23:43:15.208Z,12.42
2018-12-02T23:45:45.087Z,12.37
2018-12-02T23:48:14.916Z,12.34
2018-12-02T23:50:44.669Z,12.33
2018-12-02T23:53:14.419Z,12.33
2018-12-02T23:55:44.281Z,12.37
2018-12-02T23:58:14.057Z,12.31
